createdAt,value
2023-01-06T00:00:41.484Z,45.58
2023-01-06T00:03:13.613Z,60.33
2023-01-06T00:05:45.571Z,57.40
2023-01-06T00:08:17.571Z,60.35
2023-01-06T00:10:49.490Z,64.50
2023-01-06T00:13:22.119Z,58.78
2023-01-06T00:15:55.571Z,65.43
2023-01-06T00:18:27.646Z,59.72
2023-01-06T00:21:01.564Z,65.50
2023-01-06T00:23:34.902Z,63.22
2023-01-06T00:26:09.170Z,61.80
2023-01-06T00:28:41.239Z,71.07
2023-01-06T00:31:16.174Z,66.55
2023-01-06T00:33:48.412Z,67.65
2023-01-06T00:36:21.846Z,72.95
2023-01-06T00:38:53.978Z,55.67
2023-01-06T00:41:44.301Z,77.00
2023-01-06T00:46:48.187Z,78.53
2023-01-06T00:49:20.150Z,61.72
2023-01-06T00:51:52.750Z,65.18
2023-01-06T00:54:24.916Z,59.63
2023-01-06T00:56:57.011Z,59.53
2023-01-06T00:59:29.195Z,75.95
2023-01-06T01:02:01.885Z,61.70
2023-01-06T01:04:35.743Z,69.53
2023-01-06T01:07:08.245Z,66.10
2023-01-06T01:09:40.182Z,70.10
2023-01-06T01:12:12.757Z,80.68
2023-01-06T01:14:51.336Z,74.03
2023-01-06T01:17:27.724Z,78.93
2023-01-06T01:20:01.189Z,78.82
2023-01-06T01:22:33.320Z,84.38
2023-01-06T01:25:05.899Z,86.18
2023-01-06T01:27:37.835Z,89.22
2023-01-06T01:30:10.477Z,85.65
2023-01-06T01:32:42.396Z,85.50
2023-01-06T01:35:14.767Z,83.35
2023-01-06T01:37:46.679Z,84.82
2023-01-06T01:40:18.612Z,69.20
2023-01-06T01:42:50.545Z,88.43
2023-01-06T01:45:27.346Z,85.00
2023-01-06T01:48:13.744Z,82.78
2023-01-06T01:50:51.980Z,80.95
2023-01-06T01:53:29.146Z,84.55
2023-01-06T01:56:07.334Z,82.53
2023-01-06T01:58:46.553Z,81.88
2023-01-06T02:01:18.884Z,92.00
2023-01-06T02:03:51.870Z,82.05
2023-01-06T02:06:26.014Z,84.88
2023-01-06T02:09:24.752Z,89.07
2023-01-06T02:11:57.945Z,79.85
2023-01-06T02:14:30.397Z,88.18
2023-01-06T02:17:16.942Z,83.10
2023-01-06T02:20:16.108Z,73.10
2023-01-06T02:23:23.038Z,92.75
2023-01-06T02:26:38.658Z,83.93
2023-01-06T02:29:30.650Z,76.18
2023-01-06T02:32:40.976Z,81.10
2023-01-06T02:35:48.397Z,67.38
2023-01-06T02:38:44.827Z,75.22
2023-01-06T02:41:33.906Z,70.10
2023-01-06T02:44:36.489Z,74.70
2023-01-06T02:47:35.126Z,77.93
2023-01-06T02:50:14.750Z,68.72
2023-01-06T02:53:21.351Z,58.42
2023-01-06T02:55:56.646Z,61.65
2023-01-06T02:58:51.425Z,55.17
2023-01-06T03:01:43.441Z,46.03
2023-01-06T03:04:25.367Z,47.75
2023-01-06T03:06:59.563Z,51.92
2023-01-06T03:09:37.687Z,47.83
2023-01-06T03:12:31.130Z,41.33
2023-01-06T03:15:03.443Z,40.67
2023-01-06T03:17:35.627Z,40.88
2023-01-06T03:20:08.793Z,38.63
2023-01-06T03:22:41.862Z,51.28
2023-01-06T03:25:15.136Z,37.13
2023-01-06T03:27:47.208Z,42.72
2023-01-06T03:30:19.587Z,54.22
2023-01-06T03:33:08.620Z,57.33
2023-01-06T03:35:58.651Z,52.72
2023-01-06T03:38:45.759Z,47.90
2023-01-06T03:41:58.678Z,45.08
2023-01-06T03:44:42.889Z,47.20
2023-01-06T03:47:50.283Z,38.17
2023-01-06T03:50:32.885Z,43.15
2023-01-06T03:53:29.122Z,41.90
2023-01-06T03:56:33.728Z,41.05
2023-01-06T03:59:11.410Z,43.90
2023-01-06T04:01:44.467Z,42.63
2023-01-06T04:04:18.477Z,38.70
2023-01-06T04:06:50.451Z,31.75
2023-01-06T04:09:22.749Z,35.10
2023-01-06T04:12:13.365Z,41.30
2023-01-06T04:14:45.322Z,35.35
2023-01-06T04:17:17.276Z,32.03
2023-01-06T04:19:49.188Z,30.63
2023-01-06T04:22:21.147Z,31.55
2023-01-06T04:24:53.199Z,24.83
2023-01-06T04:27:25.324Z,25.33
2023-01-06T04:29:57.270Z,27.08
2023-01-06T04:32:29.261Z,23.70
2023-01-06T04:35:01.210Z,23.10
2023-01-06T04:37:34.025Z,27.02
2023-01-06T04:40:07.846Z,26.85
2023-01-06T04:42:58.085Z,21.23
2023-01-06T04:45:30.105Z,30.52
2023-01-06T04:48:02.233Z,29.23
2023-01-06T04:50:34.620Z,33.40
2023-01-06T04:53:07.636Z,29.67
2023-01-06T04:55:41.056Z,24.30
2023-01-06T04:58:13.090Z,33.92
2023-01-06T05:00:45.081Z,31.58
2023-01-06T05:03:17.063Z,35.97
2023-01-06T05:05:49.003Z,30.45
2023-01-06T05:08:21.258Z,33.33
2023-01-06T05:11:04.284Z,32.60
2023-01-06T05:13:36.879Z,37.22
2023-01-06T05:16:15.094Z,28.83
2023-01-06T05:18:47.251Z,36.97
2023-01-06T05:21:19.207Z,33.13
2023-01-06T05:23:52.351Z,30.27
2023-01-06T05:26:27.672Z,36.22
2023-01-06T05:28:59.635Z,29.23
2023-01-06T05:31:31.650Z,25.90
2023-01-06T05:34:03.615Z,30.80
2023-01-06T05:36:35.541Z,28.55
2023-01-06T05:39:07.494Z,28.77
2023-01-06T05:41:39.471Z,28.00
2023-01-06T05:44:11.471Z,26.95
2023-01-06T05:46:43.648Z,27.70
2023-01-06T05:49:15.785Z,24.50
2023-01-06T05:51:48.389Z,25.65
2023-01-06T05:54:20.335Z,25.23
2023-01-06T05:56:52.243Z,21.85
2023-01-06T05:59:24.173Z,23.75
2023-01-06T06:01:56.120Z,30.80
2023-01-06T06:04:28.094Z,17.30
2023-01-06T06:07:00.045Z,23.75
2023-01-06T06:09:31.980Z,18.25
2023-01-06T06:12:04.202Z,23.13
2023-01-06T06:14:36.207Z,17.20
2023-01-06T06:17:08.136Z,18.73
2023-01-06T06:19:40.074Z,18.30
2023-01-06T06:22:12.040Z,26.70
2023-01-06T06:24:44.001Z,18.42
2023-01-06T06:27:15.997Z,13.15
2023-01-06T06:29:47.981Z,15.73
2023-01-06T06:32:19.924Z,30.25
2023-01-06T06:34:51.874Z,24.17
2023-01-06T06:37:23.818Z,18.48
2023-01-06T06:39:55.737Z,14.82
2023-01-06T06:42:27.683Z,13.68
2023-01-06T06:44:59.630Z,12.68
2023-01-06T06:47:31.560Z,9.93
2023-01-06T06:50:03.811Z,20.08
2023-01-06T06:52:35.771Z,11.73
2023-01-06T06:55:08.356Z,11.75
2023-01-06T06:57:40.674Z,9.68
2023-01-06T07:00:13.608Z,8.10
2023-01-06T07:02:49.386Z,8.85
2023-01-06T07:05:21.367Z,11.65
2023-01-06T07:07:53.309Z,10.48
2023-01-06T07:10:25.302Z,11.32
2023-01-06T07:12:57.214Z,11.88
2023-01-06T07:15:29.354Z,10.75
2023-01-06T07:18:06.626Z,12.88
2023-01-06T07:20:39.504Z,10.18
2023-01-06T07:23:11.427Z,20.60
2023-01-06T07:25:43.455Z,9.60
2023-01-06T07:28:15.428Z,7.93
2023-01-06T07:30:47.731Z,7.13
2023-01-06T07:33:20.721Z,6.25
2023-01-06T07:35:55.612Z,11.93
2023-01-06T07:38:27.574Z,7.75
2023-01-06T07:41:01.584Z,4.20
2023-01-06T07:43:33.521Z,17.73
2023-01-06T07:46:05.619Z,4.47
2023-01-06T07:48:37.850Z,5.47
2023-01-06T07:51:09.850Z,27.33
2023-01-06T07:53:41.950Z,9.57
2023-01-06T07:56:14.644Z,5.28
2023-01-06T07:58:46.648Z,7.18
2023-01-06T08:01:18.718Z,5.03
2023-01-06T08:03:50.732Z,5.18
2023-01-06T08:06:22.748Z,7.50
2023-01-06T08:08:54.849Z,7.85
2023-01-06T08:11:26.862Z,7.68
2023-01-06T08:13:58.787Z,11.18
2023-01-06T08:16:30.733Z,9.20
2023-01-06T08:19:05.103Z,4.78
2023-01-06T08:21:37.049Z,12.05
2023-01-06T08:24:09.168Z,6.53
2023-01-06T08:26:41.518Z,10.73
2023-01-06T08:29:13.561Z,11.30
2023-01-06T08:31:45.597Z,10.13
2023-01-06T08:34:17.994Z,9.38
2023-01-06T08:36:50.102Z,5.25
2023-01-06T08:39:22.087Z,11.48
2023-01-06T08:41:54.530Z,10.57
2023-01-06T08:44:26.490Z,13.18
2023-01-06T08:46:58.519Z,10.82
2023-01-06T08:49:30.532Z,11.55
2023-01-06T08:52:02.503Z,14.32
2023-01-06T08:54:34.474Z,8.73
2023-01-06T08:57:08.385Z,12.95
2023-01-06T08:59:40.310Z,6.18
2023-01-06T09:02:12.649Z,12.45
2023-01-06T09:04:44.771Z,8.68
2023-01-06T09:07:16.841Z,10.82
2023-01-06T09:09:48.836Z,10.82
2023-01-06T09:12:21.278Z,10.75
2023-01-06T09:14:53.351Z,10.30
2023-01-06T09:17:25.517Z,7.10
2023-01-06T09:19:57.553Z,6.90
2023-01-06T09:22:29.570Z,12.38
2023-01-06T09:25:01.519Z,8.68
2023-01-06T09:27:33.468Z,14.32
2023-01-06T09:30:07.142Z,10.45
2023-01-06T09:32:39.086Z,14.18
2023-01-06T09:35:11.301Z,12.68
2023-01-06T09:37:43.259Z,9.68
2023-01-06T09:40:18.779Z,9.38
2023-01-06T09:43:15.980Z,9.45
2023-01-06T09:45:54.094Z,10.02
2023-01-06T09:48:33.880Z,12.10
2023-01-06T09:51:07.487Z,8.85
2023-01-06T09:53:50.400Z,16.35
2023-01-06T09:56:25.227Z,9.02
2023-01-06T09:59:13.137Z,10.23
2023-01-06T10:01:50.721Z,10.35
2023-01-06T10:04:29.607Z,6.15
2023-01-06T10:07:17.673Z,12.82
2023-01-06T10:10:18.875Z,9.10
2023-01-06T10:13:10.170Z,10.00
2023-01-06T10:16:11.315Z,10.98
2023-01-06T10:18:59.696Z,11.05
2023-01-06T10:22:01.524Z,9.25
2023-01-06T10:25:19.513Z,9.25
2023-01-06T10:28:12.553Z,17.58
2023-01-06T10:30:52.729Z,19.42
2023-01-06T10:33:34.113Z,11.07
2023-01-06T10:36:14.154Z,18.05
2023-01-06T10:38:50.147Z,18.48
2023-01-06T10:41:51.017Z,19.75
2023-01-06T10:44:23.815Z,7.10
2023-01-06T10:46:55.861Z,6.07
2023-01-06T10:49:27.901Z,3.38
2023-01-06T10:52:03.514Z,4.25
2023-01-06T10:54:39.000Z,12.50
2023-01-06T10:57:37.184Z,6.63
2023-01-06T11:00:14.883Z,9.45
2023-01-06T11:02:51.059Z,8.35
2023-01-06T11:05:26.230Z,5.78
2023-01-06T11:08:12.906Z,10.98
2023-01-06T11:10:50.807Z,7.80
2023-01-06T11:13:36.625Z,10.00
2023-01-06T11:16:21.936Z,8.30
2023-01-06T11:19:25.474Z,8.50
2023-01-06T11:21:57.440Z,9.32
2023-01-06T11:24:30.641Z,5.47
2023-01-06T11:27:16.677Z,7.32
2023-01-06T11:29:48.787Z,5.70
2023-01-06T11:32:28.176Z,7.55
2023-01-06T11:35:05.387Z,5.33
2023-01-06T11:37:42.909Z,3.28
2023-01-06T11:40:33.851Z,11.10
2023-01-06T11:43:16.880Z,8.63
2023-01-06T11:46:04.800Z,6.47
2023-01-06T11:48:43.858Z,5.63
2023-01-06T11:51:32.118Z,4.50
2023-01-06T11:54:22.427Z,9.93
2023-01-06T12:00:27.155Z,12.07
2023-01-06T12:03:25.477Z,7.25
2023-01-06T12:06:32.479Z,3.47
2023-01-06T12:09:14.669Z,9.02
2023-01-06T12:11:50.448Z,5.80
2023-01-06T12:14:31.052Z,4.05
2023-01-06T12:17:32.977Z,4.65
2023-01-06T12:20:23.284Z,10.13
2023-01-06T12:23:03.083Z,8.75
2023-01-06T12:25:45.336Z,5.75
2023-01-06T12:28:39.779Z,11.57
2023-01-06T12:31:42.251Z,7.18
2023-01-06T12:34:24.696Z,5.30
2023-01-06T12:37:16.742Z,8.05
2023-01-06T12:40:05.688Z,7.75
2023-01-06T12:43:12.557Z,11.18
2023-01-06T12:46:01.220Z,11.95
2023-01-06T12:48:45.688Z,9.45
2023-01-06T12:51:44.590Z,5.18
2023-01-06T12:54:31.332Z,4.18
2023-01-06T12:57:18.380Z,5.70
2023-01-06T13:00:18.151Z,7.22
2023-01-06T13:03:19.526Z,12.48
2023-01-06T13:06:07.021Z,11.27
2023-01-06T13:09:19.154Z,6.47
2023-01-06T13:12:41.894Z,11.32
2023-01-06T13:15:29.601Z,11.15
2023-01-06T13:18:19.426Z,11.20
2023-01-06T13:20:59.094Z,5.57
2023-01-06T13:24:00.265Z,8.18
2023-01-06T13:27:04.855Z,8.98
2023-01-06T13:30:10.288Z,5.25
2023-01-06T13:33:22.035Z,9.40
2023-01-06T13:36:22.671Z,14.15
2023-01-06T13:39:25.925Z,6.25
2023-01-06T13:42:00.912Z,5.40
2023-01-06T13:44:38.165Z,10.40
2023-01-06T13:47:17.659Z,14.65
2023-01-06T13:49:50.978Z,19.50
2023-01-06T13:52:30.485Z,9.43
2023-01-06T13:55:26.184Z,7.82
2023-01-06T13:58:24.418Z,13.07
2023-01-06T14:01:21.114Z,7.60
2023-01-06T14:03:53.211Z,4.78
2023-01-06T14:06:25.244Z,10.43
2023-01-06T14:09:00.571Z,12.27
2023-01-06T14:11:37.796Z,3.85
2023-01-06T14:14:29.620Z,7.43
2023-01-06T14:17:01.751Z,10.63
2023-01-06T14:19:38.743Z,16.13
2023-01-06T14:22:18.858Z,9.75
2023-01-06T14:24:55.295Z,15.57
2023-01-06T14:27:46.285Z,10.60
2023-01-06T14:30:34.802Z,12.48
2023-01-06T14:33:35.545Z,12.32
2023-01-06T14:36:15.429Z,10.70
2023-01-06T14:38:52.585Z,8.13
2023-01-06T14:41:43.414Z,10.38
2023-01-06T14:44:47.269Z,15.40
2023-01-06T14:47:38.676Z,12.00
2023-01-06T14:50:18.454Z,13.23
2023-01-06T14:53:26.391Z,13.20
2023-01-06T14:56:00.242Z,18.58
2023-01-06T14:58:36.669Z,10.63
2023-01-06T15:01:33.767Z,10.98
2023-01-06T15:04:07.668Z,9.25
2023-01-06T15:06:39.772Z,15.45
2023-01-06T15:09:22.165Z,14.48
2023-01-06T15:11:54.630Z,13.18
2023-01-06T15:14:29.075Z,17.27
2023-01-06T15:17:07.639Z,15.88
2023-01-06T15:19:44.348Z,17.58
2023-01-06T15:22:25.344Z,18.77
2023-01-06T15:24:57.536Z,9.88
2023-01-06T15:27:29.586Z,17.83
2023-01-06T15:30:01.590Z,11.80
2023-01-06T15:32:34.912Z,14.18
2023-01-06T15:35:12.635Z,19.33
2023-01-06T15:37:47.061Z,12.77
2023-01-06T15:40:21.789Z,13.90
2023-01-06T15:42:53.778Z,13.27
2023-01-06T15:45:35.195Z,21.67
2023-01-06T15:48:21.379Z,12.50
2023-01-06T15:50:53.525Z,5.88
2023-01-06T15:53:32.701Z,18.63
2023-01-06T15:56:06.203Z,12.68
2023-01-06T15:58:39.952Z,15.10
2023-01-06T16:01:16.041Z,10.23
2023-01-06T16:03:53.711Z,15.13
2023-01-06T16:06:40.827Z,7.68
2023-01-06T16:09:30.698Z,16.02
2023-01-06T16:12:18.117Z,17.92
2023-01-06T16:14:50.453Z,13.25
2023-01-06T16:17:33.579Z,10.00
2023-01-06T16:20:22.104Z,10.70
2023-01-06T16:22:55.724Z,9.20
2023-01-06T16:25:32.501Z,16.40
2023-01-06T16:28:20.770Z,13.07
2023-01-06T16:31:12.605Z,18.63
2023-01-06T16:33:48.363Z,12.05
2023-01-06T16:36:21.233Z,7.88
2023-01-06T16:38:53.174Z,15.60
2023-01-06T16:41:25.162Z,12.00
2023-01-06T16:43:57.103Z,10.98
2023-01-06T16:46:30.182Z,12.55
2023-01-06T16:49:09.777Z,10.38
2023-01-06T16:51:45.698Z,16.55
2023-01-06T16:54:18.775Z,13.38
2023-01-06T16:56:52.281Z,9.75
2023-01-06T16:59:25.728Z,10.75
2023-01-06T17:01:57.820Z,12.63
2023-01-06T17:04:30.003Z,13.05
2023-01-06T17:07:05.708Z,16.63
2023-01-06T17:09:37.728Z,9.45
2023-01-06T17:12:37.486Z,17.25
2023-01-06T17:15:12.588Z,19.85
2023-01-06T17:17:44.634Z,8.48
2023-01-06T17:20:17.073Z,10.80
2023-01-06T17:22:51.372Z,14.20
2023-01-06T17:25:23.963Z,16.38
2023-01-06T17:27:56.050Z,11.35
2023-01-06T17:30:28.110Z,13.60
2023-01-06T17:33:00.144Z,14.88
2023-01-06T17:35:32.523Z,16.13
2023-01-06T17:38:25.923Z,13.70
2023-01-06T17:40:58.305Z,30.25
2023-01-06T17:43:33.773Z,19.92
2023-01-06T17:46:36.015Z,15.82
2023-01-06T17:49:31.352Z,15.68
2023-01-06T17:52:22.247Z,14.30
2023-01-06T17:55:17.250Z,16.13
2023-01-06T17:57:49.445Z,19.30
2023-01-06T18:00:34.503Z,15.25
2023-01-06T18:03:12.863Z,16.48
2023-01-06T18:05:45.191Z,10.65
2023-01-06T18:08:18.060Z,10.55
2023-01-06T18:11:05.472Z,15.23
2023-01-06T18:13:40.209Z,24.33
2023-01-06T18:16:33.102Z,19.13
2023-01-06T18:19:31.642Z,9.02
2023-01-06T18:22:25.486Z,15.68
2023-01-06T18:25:00.733Z,17.95
2023-01-06T18:27:34.825Z,12.35
2023-01-06T18:30:23.115Z,12.40
2023-01-06T18:32:59.091Z,10.75
2023-01-06T18:35:31.056Z,18.52
2023-01-06T18:38:06.212Z,14.02
2023-01-06T18:40:39.599Z,13.85
2023-01-06T18:43:28.033Z,9.70
2023-01-06T18:46:02.587Z,10.13
2023-01-06T18:48:34.950Z,9.65
2023-01-06T18:51:22.813Z,8.00
2023-01-06T18:53:54.796Z,7.72
2023-01-06T18:56:27.210Z,8.60
2023-01-06T18:59:00.217Z,7.10
2023-01-06T19:01:49.366Z,13.45
2023-01-06T19:04:33.039Z,19.95
2023-01-06T19:07:28.971Z,9.52
2023-01-06T19:10:01.984Z,27.33
2023-01-06T19:12:39.225Z,10.77
2023-01-06T19:15:25.486Z,11.23
2023-01-06T19:17:57.457Z,15.82
2023-01-06T19:20:35.172Z,19.75
2023-01-06T19:23:20.072Z,11.60
2023-01-06T19:26:21.512Z,16.17
2023-01-06T19:29:01.816Z,12.05
2023-01-06T19:34:14.710Z,18.48
2023-01-06T19:36:52.606Z,20.55
2023-01-06T19:39:30.839Z,16.65
2023-01-06T19:42:08.374Z,20.08
2023-01-06T19:44:41.244Z,17.05
2023-01-06T19:47:24.403Z,17.70
2023-01-06T19:50:00.917Z,15.60
2023-01-06T19:52:39.615Z,15.68
2023-01-06T19:55:29.276Z,16.70
2023-01-06T19:58:13.004Z,14.68
2023-01-06T20:00:54.411Z,14.85
2023-01-06T20:03:38.743Z,9.75
2023-01-06T20:06:11.024Z,14.20
2023-01-06T20:08:44.085Z,15.00
2023-01-06T20:11:16.559Z,15.88
2023-01-06T20:13:49.127Z,13.10
2023-01-06T20:16:21.824Z,12.13
2023-01-06T20:18:53.871Z,17.33
2023-01-06T20:21:25.867Z,14.73
2023-01-06T20:23:58.570Z,15.73
2023-01-06T20:26:30.559Z,12.98
2023-01-06T20:29:04.507Z,22.77
2023-01-06T20:31:36.691Z,11.60
2023-01-06T20:34:08.683Z,16.98
2023-01-06T20:36:41.033Z,23.02
2023-01-06T20:39:15.211Z,10.65
2023-01-06T20:41:47.248Z,15.52
2023-01-06T20:44:19.269Z,17.38
2023-01-06T20:46:51.236Z,13.65
2023-01-06T20:49:23.249Z,16.00
2023-01-06T20:51:55.692Z,14.50
2023-01-06T20:54:27.678Z,9.88
2023-01-06T20:56:59.681Z,12.00
2023-01-06T20:59:31.782Z,13.80
2023-01-06T21:02:04.457Z,21.83
2023-01-06T21:04:36.602Z,21.80
2023-01-06T21:07:08.897Z,20.20
2023-01-06T21:09:40.942Z,12.30
2023-01-06T21:12:12.956Z,21.95
2023-01-06T21:14:45.015Z,18.10
2023-01-06T21:17:17.004Z,16.80
2023-01-06T21:19:51.725Z,20.02
2023-01-06T21:22:23.758Z,11.77
2023-01-06T21:24:55.848Z,13.95
2023-01-06T21:27:27.803Z,14.52
2023-01-06T21:29:59.763Z,13.05
2023-01-06T21:32:31.804Z,16.67
2023-01-06T21:35:04.133Z,16.20
2023-01-06T21:37:36.425Z,11.75
2023-01-06T21:40:09.656Z,16.52
2023-01-06T21:43:00.475Z,20.83
2023-01-06T21:45:32.654Z,14.48
2023-01-06T21:48:05.934Z,19.77
2023-01-06T21:50:43.062Z,20.52
2023-01-06T21:53:15.120Z,16.25
2023-01-06T21:55:47.102Z,18.70
2023-01-06T21:58:19.462Z,23.85
2023-01-06T22:00:51.580Z,18.75
2023-01-06T22:03:23.698Z,18.67
2023-01-06T22:05:56.849Z,22.15
2023-01-06T22:08:31.595Z,24.08
2023-01-06T22:11:04.747Z,23.13
2023-01-06T22:13:39.659Z,27.92
2023-01-06T22:16:12.377Z,27.25
2023-01-06T22:18:44.459Z,26.13
2023-01-06T22:21:17.111Z,23.23
2023-01-06T22:23:50.533Z,41.20
2023-01-06T22:26:22.684Z,32.10
2023-01-06T22:28:54.662Z,35.33
2023-01-06T22:31:26.712Z,30.92
2023-01-06T22:33:58.705Z,32.72
2023-01-06T22:36:30.911Z,33.83
2023-01-06T22:39:03.163Z,27.15
2023-01-06T22:41:35.374Z,29.42
2023-01-06T22:44:07.512Z,35.83
2023-01-06T22:46:41.208Z,32.55
2023-01-06T22:49:13.314Z,38.80
2023-01-06T22:51:45.789Z,30.23
2023-01-06T22:54:17.962Z,31.25
2023-01-06T22:56:49.939Z,32.35
2023-01-06T22:59:21.979Z,30.20
2023-01-06T23:01:54.414Z,38.35
2023-01-06T23:04:26.688Z,30.17
2023-01-06T23:06:58.727Z,32.55
2023-01-06T23:09:30.678Z,45.00
2023-01-06T23:12:02.684Z,40.22
2023-01-06T23:14:34.746Z,42.70
2023-01-06T23:17:06.758Z,38.78
2023-01-06T23:19:38.776Z,38.22
2023-01-06T23:22:10.809Z,46.15
2023-01-06T23:24:42.919Z,34.78
2023-01-06T23:27:15.225Z,36.53
2023-01-06T23:29:47.257Z,35.33
2023-01-06T23:32:20.378Z,35.63
2023-01-06T23:34:52.338Z,37.90
2023-01-06T23:37:24.333Z,34.38
2023-01-06T23:39:56.303Z,41.63
2023-01-06T23:42:28.725Z,35.92
2023-01-06T23:45:05.123Z,46.80
2023-01-06T23:47:37.133Z,35.53
2023-01-06T23:50:09.568Z,39.72
2023-01-06T23:52:41.594Z,41.42
2023-01-06T23:55:13.538Z,36.28
2023-01-06T23:57:45.499Z,36.40
